createdAt,value
2022-09-23T00:00:46.354Z,100.00
2022-09-23T00:03:14.118Z,100.00
2022-09-23T00:05:41.072Z,100.00
2022-09-23T00:08:11.072Z,100.00
2022-09-23T00:10:39.638Z,100.00
2022-09-23T00:13:07.060Z,100.00
2022-09-23T00:15:39.059Z,100.00
2022-09-23T00:18:06.140Z,100.00
2022-09-23T00:20:34.761Z,100.00
2022-09-23T00:23:02.589Z,100.00
2022-09-23T00:25:29.585Z,100.00
2022-09-23T00:27:57.290Z,100.00
2022-09-23T00:30:24.507Z,100.00
2022-09-23T00:32:51.515Z,100.00
2022-09-23T00:35:19.038Z,100.00
2022-09-23T00:37:46.023Z,100.00
2022-09-23T00:40:13.053Z,100.00
2022-09-23T00:42:48.310Z,100.00
2022-09-23T00:45:17.053Z,100.00
2022-09-23T00:47:56.175Z,100.00
2022-09-23T00:50:40.164Z,100.00
2022-09-23T00:53:09.940Z,100.00
2022-09-23T00:55:45.745Z,100.00
2022-09-23T00:58:17.188Z,100.00
2022-09-23T01:00:44.365Z,100.00
2022-09-23T01:03:11.341Z,100.00
2022-09-23T01:05:38.700Z,100.00
2022-09-23T01:08:08.925Z,100.00
2022-09-23T01:11:07.988Z,100.00
2022-09-23T01:13:53.611Z,100.00
2022-09-23T01:16:26.984Z,100.00
2022-09-23T01:18:56.791Z,100.00
2022-09-23T01:21:37.153Z,100.00
2022-09-23T01:24:31.184Z,100.00
2022-09-23T01:27:10.220Z,100.00
2022-09-23T01:30:06.497Z,100.00
2022-09-23T01:32:46.280Z,100.00
2022-09-23T01:35:25.395Z,100.00
2022-09-23T01:38:17.200Z,100.00
2022-09-23T01:40:51.780Z,100.00
2022-09-23T01:43:32.386Z,100.00
2022-09-23T01:46:02.675Z,100.00
2022-09-23T01:48:35.711Z,100.00
2022-09-23T01:51:15.281Z,100.00
2022-09-23T01:54:03.171Z,100.00
2022-09-23T01:56:35.616Z,100.00
2022-09-23T01:59:19.453Z,100.00
2022-09-23T02:01:55.176Z,100.00
2022-09-23T02:04:29.694Z,100.00
2022-09-23T02:07:03.148Z,100.00
2022-09-23T02:09:37.400Z,100.00
2022-09-23T02:12:13.626Z,100.00
2022-09-23T02:14:49.163Z,100.00
2022-09-23T02:17:28.845Z,100.00
2022-09-23T02:20:02.432Z,100.00
2022-09-23T02:23:01.365Z,100.00
2022-09-23T02:25:55.131Z,100.00
2022-09-23T02:28:32.717Z,100.00
2022-09-23T02:31:38.223Z,100.00
2022-09-23T02:34:20.593Z,100.00
2022-09-23T02:37:02.762Z,100.00
2022-09-23T02:39:39.786Z,100.00
2022-09-23T02:42:13.718Z,100.00
2022-09-23T02:44:40.738Z,100.00
2022-09-23T02:47:08.118Z,100.00
2022-09-23T02:49:35.106Z,100.00
2022-09-23T02:52:05.145Z,100.00
2022-09-23T02:54:33.573Z,100.00
2022-09-23T02:57:04.386Z,100.00
2022-09-23T02:59:32.553Z,100.00
2022-09-23T03:02:11.888Z,100.00
2022-09-23T03:04:47.040Z,100.00
2022-09-23T03:07:50.005Z,100.00
2022-09-23T03:10:35.633Z,100.00
2022-09-23T03:13:15.911Z,100.00
2022-09-23T03:15:53.017Z,100.00
2022-09-23T03:18:44.574Z,100.00
2022-09-23T03:21:15.256Z,100.00
2022-09-23T03:23:44.550Z,100.00
2022-09-23T03:26:23.133Z,100.00
2022-09-23T03:28:51.170Z,100.00
2022-09-23T03:31:18.405Z,100.00
2022-09-23T03:33:50.535Z,100.00
2022-09-23T03:36:23.607Z,100.00
2022-09-23T03:38:54.549Z,100.00
2022-09-23T03:41:36.542Z,100.00
2022-09-23T03:44:03.771Z,100.00
2022-09-23T03:46:30.664Z,100.00
2022-09-23T03:49:08.269Z,100.00
2022-09-23T03:51:35.221Z,100.00
2022-09-23T03:54:02.245Z,100.00
2022-09-23T03:56:32.164Z,100.00
2022-09-23T03:58:59.221Z,100.00
2022-09-23T04:01:26.333Z,100.00
2022-09-23T04:03:53.365Z,100.00
2022-09-23T04:06:20.708Z,100.00
2022-09-23T04:08:47.771Z,100.00
2022-09-23T04:11:14.913Z,100.00
2022-09-23T04:13:41.919Z,100.00
2022-09-23T04:16:08.919Z,100.00
2022-09-23T04:18:36.140Z,100.00
2022-09-23T04:21:03.321Z,100.00
2022-09-23T04:23:30.308Z,100.00
2022-09-23T04:25:57.314Z,100.00
2022-09-23T04:28:24.349Z,100.00
2022-09-23T04:30:51.355Z,100.00
2022-09-23T04:33:18.351Z,100.00
2022-09-23T04:35:50.467Z,100.00
2022-09-23T04:38:18.410Z,100.00
2022-09-23T04:40:45.414Z,100.00
2022-09-23T04:43:13.647Z,100.00
2022-09-23T04:45:40.704Z,100.00
2022-09-23T04:48:07.720Z,100.00
2022-09-23T04:50:34.979Z,100.00
2022-09-23T04:53:01.969Z,100.00
2022-09-23T04:55:29.311Z,100.00
2022-09-23T04:57:56.691Z,100.00
2022-09-23T05:00:24.995Z,100.00
2022-09-23T05:02:51.969Z,100.00
2022-09-23T05:05:19.127Z,100.00
2022-09-23T05:07:46.486Z,100.00
2022-09-23T05:10:13.939Z,100.00
2022-09-23T05:12:41.799Z,100.00
2022-09-23T05:15:09.267Z,100.00
2022-09-23T05:17:36.419Z,100.00
2022-09-23T05:20:04.292Z,100.00
2022-09-23T05:22:31.433Z,100.00
2022-09-23T05:24:58.479Z,100.00
2022-09-23T05:27:25.441Z,100.00
2022-09-23T05:29:52.412Z,100.00
2022-09-23T05:32:19.581Z,100.00
2022-09-23T05:34:46.647Z,100.00
2022-09-23T05:37:13.797Z,100.00
2022-09-23T05:39:40.831Z,100.00
2022-09-23T05:42:07.886Z,100.00
2022-09-23T05:44:35.128Z,100.00
2022-09-23T05:47:02.232Z,100.00
2022-09-23T05:49:48.257Z,100.00
2022-09-23T05:52:16.262Z,100.00
2022-09-23T05:54:43.345Z,100.00
2022-09-23T05:57:10.330Z,100.00
2022-09-23T05:59:37.361Z,100.00
2022-09-23T06:02:04.643Z,100.00
2022-09-23T06:04:31.664Z,100.00
2022-09-23T06:07:03.649Z,100.00
2022-09-23T06:09:34.225Z,100.00
2022-09-23T06:12:04.422Z,100.00
2022-09-23T06:14:31.423Z,100.00
2022-09-23T06:16:58.378Z,100.00
2022-09-23T06:19:25.344Z,100.00
2022-09-23T06:21:52.334Z,100.00
2022-09-23T06:24:22.962Z,100.00
2022-09-23T06:26:51.883Z,100.00
2022-09-23T06:29:18.881Z,100.00
2022-09-23T06:31:45.844Z,100.00
2022-09-23T06:34:14.385Z,100.00
2022-09-23T06:36:45.037Z,100.00
2022-09-23T06:39:14.408Z,100.00
2022-09-23T06:41:41.631Z,100.00
2022-09-23T06:44:13.646Z,100.00
2022-09-23T06:46:40.876Z,100.00
2022-09-23T06:49:07.905Z,100.00
2022-09-23T06:51:34.934Z,100.00
2022-09-23T06:54:01.970Z,98.88
2022-09-23T06:56:29.033Z,98.21
2022-09-23T06:58:57.048Z,98.83
2022-09-23T07:01:24.014Z,97.48
2022-09-23T07:03:50.997Z,99.23
2022-09-23T07:06:17.961Z,96.87
2022-09-23T07:08:46.123Z,95.72
2022-09-23T07:11:14.169Z,97.57
2022-09-23T07:13:42.081Z,94.52
2022-09-23T07:16:10.733Z,93.90
2022-09-23T07:18:37.953Z,93.33
2022-09-23T07:21:07.841Z,94.05
2022-09-23T07:23:34.958Z,94.25
2022-09-23T07:26:01.955Z,94.19
2022-09-23T07:28:28.904Z,93.55
2022-09-23T07:31:00.297Z,93.58
2022-09-23T07:33:32.420Z,93.28
2022-09-23T07:36:04.395Z,94.22
2022-09-23T07:38:31.416Z,94.62
2022-09-23T07:41:06.537Z,92.82
2022-09-23T07:43:33.560Z,93.26
2022-09-23T07:46:03.744Z,94.62
2022-09-23T07:48:34.302Z,94.26
2022-09-23T07:51:13.333Z,93.17
2022-09-23T07:53:40.319Z,91.38
2022-09-23T07:56:07.302Z,91.57
2022-09-23T07:58:35.217Z,93.44
2022-09-23T08:01:09.153Z,93.29
2022-09-23T08:03:37.059Z,92.53
2022-09-23T08:06:13.852Z,92.22
2022-09-23T08:08:41.703Z,91.84
2022-09-23T08:11:11.084Z,88.28
2022-09-23T08:13:38.120Z,78.83
2022-09-23T08:16:05.459Z,77.72
2022-09-23T08:18:33.052Z,75.37
2022-09-23T08:21:00.156Z,75.83
2022-09-23T08:23:27.339Z,75.46
2022-09-23T08:26:00.224Z,76.24
2022-09-23T08:28:27.968Z,75.30
2022-09-23T08:30:55.408Z,72.74
2022-09-23T08:33:23.724Z,71.60
2022-09-23T08:35:52.243Z,71.59
2022-09-23T08:38:19.841Z,71.93
2022-09-23T08:40:49.284Z,71.55
2022-09-23T08:43:28.238Z,72.18
2022-09-23T08:46:00.071Z,72.82
2022-09-23T08:48:34.515Z,73.29
2022-09-23T08:51:08.061Z,74.21
2022-09-23T08:53:37.075Z,70.89
2022-09-23T08:56:19.669Z,73.10
2022-09-23T08:59:05.471Z,71.42
2022-09-23T09:01:49.742Z,69.26
2022-09-23T09:05:01.021Z,69.32
2022-09-23T09:07:37.130Z,70.67
2022-09-23T09:10:13.746Z,68.53
2022-09-23T09:12:44.928Z,68.02
2022-09-23T09:15:25.266Z,68.66
2022-09-23T09:18:01.383Z,69.12
2022-09-23T09:20:40.797Z,66.76
2022-09-23T09:23:13.497Z,68.94
2022-09-23T09:25:50.828Z,66.34
2022-09-23T09:28:38.170Z,65.55
2022-09-23T09:31:40.463Z,65.00
2022-09-23T09:34:30.420Z,65.80
2022-09-23T09:37:06.739Z,66.16
2022-09-23T09:39:35.549Z,64.58
2022-09-23T09:42:04.559Z,68.48
2022-09-23T09:44:40.745Z,65.62
2022-09-23T09:47:34.463Z,63.17
2022-09-23T09:50:06.922Z,65.88
2022-09-23T09:52:38.428Z,64.12
2022-09-23T09:55:14.538Z,62.60
2022-09-23T09:57:47.438Z,62.52
2022-09-23T10:00:22.178Z,63.24
2022-09-23T10:02:53.072Z,60.81
2022-09-23T10:05:27.799Z,62.03
2022-09-23T10:07:55.078Z,61.32
2022-09-23T10:10:33.498Z,60.95
2022-09-23T10:13:15.454Z,61.27
2022-09-23T10:15:45.201Z,61.03
2022-09-23T10:18:19.893Z,61.90
2022-09-23T10:20:48.141Z,62.14
2022-09-23T10:23:22.157Z,61.20
2022-09-23T10:26:00.978Z,58.94
2022-09-23T10:28:48.084Z,61.48
2022-09-23T10:31:24.525Z,59.98
2022-09-23T10:33:54.166Z,58.64
2022-09-23T10:36:21.553Z,56.62
2022-09-23T10:39:00.896Z,57.29
2022-09-23T10:42:09.340Z,56.39
2022-09-23T10:45:15.102Z,56.11
2022-09-23T10:47:56.193Z,56.94
2022-09-23T10:50:39.457Z,56.57
2022-09-23T10:53:14.794Z,57.25
2022-09-23T10:55:57.020Z,57.32
2022-09-23T10:58:54.983Z,56.70
2022-09-23T11:01:43.534Z,56.50
2022-09-23T11:04:27.216Z,55.80
2022-09-23T11:07:36.927Z,54.62
2022-09-23T11:10:44.985Z,54.90
2022-09-23T11:13:30.397Z,54.75
2022-09-23T11:16:39.324Z,54.59
2022-09-23T11:19:15.347Z,53.99
2022-09-23T11:21:59.785Z,54.76
2022-09-23T11:24:48.446Z,54.33
2022-09-23T11:27:39.620Z,53.78
2022-09-23T11:30:20.366Z,55.91
2022-09-23T11:35:42.392Z,55.36
2022-09-23T11:38:15.726Z,53.20
2022-09-23T11:40:46.870Z,55.24
2022-09-23T11:43:29.746Z,54.86
2022-09-23T11:46:06.664Z,54.07
2022-09-23T11:48:41.490Z,54.43
2022-09-23T11:51:19.449Z,54.59
2022-09-23T11:54:20.432Z,53.61
2022-09-23T11:56:56.569Z,53.45
2022-09-23T11:59:39.951Z,53.11
2022-09-23T12:02:19.895Z,54.00
2022-09-23T12:05:01.118Z,53.60
2022-09-23T12:07:43.449Z,53.78
2022-09-23T12:10:11.896Z,53.96
2022-09-23T12:12:44.137Z,51.85
2022-09-23T12:15:23.909Z,51.70
2022-09-23T12:17:59.393Z,52.37
2022-09-23T12:20:40.496Z,53.59
2022-09-23T12:23:32.268Z,51.98
2022-09-23T12:26:03.143Z,53.52
2022-09-23T12:28:40.252Z,52.51
2022-09-23T12:31:13.767Z,50.97
2022-09-23T12:33:48.392Z,55.09
2022-09-23T12:36:15.496Z,53.19
2022-09-23T12:39:16.962Z,53.91
2022-09-23T12:41:48.213Z,51.63
2022-09-23T12:44:29.521Z,52.36
2022-09-23T12:47:14.948Z,52.37
2022-09-23T12:49:42.762Z,53.12
2022-09-23T12:52:12.520Z,50.49
2022-09-23T12:54:41.134Z,53.87
2022-09-23T12:57:13.119Z,51.95
2022-09-23T12:59:59.854Z,52.33
2022-09-23T13:02:34.575Z,53.07
2022-09-23T13:05:20.585Z,52.98
2022-09-23T13:07:49.801Z,53.25
2022-09-23T13:10:27.122Z,50.69
2022-09-23T13:12:56.092Z,50.48
2022-09-23T13:15:35.712Z,50.82
2022-09-23T13:18:20.861Z,52.86
2022-09-23T13:20:49.939Z,51.32
2022-09-23T13:23:30.387Z,53.25
2022-09-23T13:26:10.854Z,53.88
2022-09-23T13:28:56.011Z,53.18
2022-09-23T13:31:23.087Z,57.35
2022-09-23T13:34:01.870Z,54.60
2022-09-23T13:36:28.944Z,53.18
2022-09-23T13:39:14.838Z,54.72
2022-09-23T13:41:45.218Z,53.50
2022-09-23T13:44:17.636Z,57.00
2022-09-23T13:47:00.429Z,55.75
2022-09-23T13:49:33.112Z,54.42
2022-09-23T13:52:00.362Z,54.91
2022-09-23T13:54:29.902Z,53.01
2022-09-23T13:56:57.248Z,54.22
2022-09-23T13:59:30.314Z,54.24
2022-09-23T14:02:05.858Z,54.13
2022-09-23T14:04:33.030Z,53.71
2022-09-23T14:07:01.408Z,56.14
2022-09-23T14:09:29.759Z,54.97
2022-09-23T14:11:59.389Z,57.37
2022-09-23T14:14:28.965Z,56.69
2022-09-23T14:16:57.609Z,54.88
2022-09-23T14:19:26.084Z,55.87
2022-09-23T14:21:54.513Z,58.90
2022-09-23T14:24:33.586Z,55.96
2022-09-23T14:27:17.700Z,54.96
2022-09-23T14:29:47.650Z,53.71
2022-09-23T14:32:25.828Z,54.63
2022-09-23T14:35:02.008Z,55.34
2022-09-23T14:37:37.946Z,59.04
2022-09-23T14:40:12.288Z,57.47
2022-09-23T14:42:49.258Z,58.61
2022-09-23T14:45:20.372Z,56.63
2022-09-23T14:47:53.584Z,57.18
2022-09-23T14:50:24.184Z,57.93
2022-09-23T14:52:51.539Z,58.80
2022-09-23T14:55:18.670Z,60.16
2022-09-23T14:57:45.950Z,63.46
2022-09-23T15:00:13.375Z,63.74
2022-09-23T15:02:44.583Z,64.20
2022-09-23T15:05:20.100Z,64.43
2022-09-23T15:07:50.416Z,68.24
2022-09-23T15:10:26.153Z,69.41
2022-09-23T15:12:56.579Z,70.27
2022-09-23T15:15:26.053Z,70.88
2022-09-23T15:17:53.505Z,71.76
2022-09-23T15:20:26.737Z,71.96
2022-09-23T15:22:55.696Z,72.98
2022-09-23T15:25:27.106Z,73.26
2022-09-23T15:27:58.278Z,74.10
2022-09-23T15:30:26.062Z,74.74
2022-09-23T15:32:53.148Z,75.13
2022-09-23T15:35:22.835Z,75.05
2022-09-23T15:37:50.633Z,76.22
2022-09-23T15:40:44.089Z,76.20
2022-09-23T15:43:21.767Z,75.96
2022-09-23T15:45:54.263Z,76.03
2022-09-23T15:48:36.786Z,76.57
2022-09-23T15:51:06.042Z,76.28
2022-09-23T15:53:33.066Z,77.94
2022-09-23T15:56:00.048Z,75.97
2022-09-23T15:58:27.070Z,77.18
2022-09-23T16:00:56.842Z,78.24
2022-09-23T16:03:25.779Z,78.28
2022-09-23T16:05:52.775Z,78.20
2022-09-23T16:08:19.734Z,78.87
2022-09-23T16:10:46.713Z,79.59
2022-09-23T16:13:14.504Z,79.76
2022-09-23T16:15:42.243Z,80.92
2022-09-23T16:18:11.323Z,81.02
2022-09-23T16:20:41.706Z,81.50
2022-09-23T16:23:18.488Z,81.80
2022-09-23T16:25:45.451Z,81.50
2022-09-23T16:28:12.413Z,81.80
2022-09-23T16:30:39.352Z,81.58
2022-09-23T16:33:06.305Z,81.94
2022-09-23T16:35:33.667Z,82.61
2022-09-23T16:38:00.654Z,82.79
2022-09-23T16:40:27.681Z,82.92
2022-09-23T16:42:54.665Z,83.58
2022-09-23T16:45:22.394Z,84.33
2022-09-23T16:47:51.500Z,84.26
2022-09-23T16:50:21.578Z,85.35
2022-09-23T16:52:48.690Z,84.55
2022-09-23T16:55:15.670Z,84.88
2022-09-23T16:57:43.223Z,84.44
2022-09-23T17:00:14.139Z,84.97
2022-09-23T17:02:41.223Z,84.99
2022-09-23T17:05:08.673Z,85.36
2022-09-23T17:07:35.666Z,85.97
2022-09-23T17:10:02.845Z,86.01
2022-09-23T17:12:32.101Z,86.28
2022-09-23T17:14:59.055Z,86.88
2022-09-23T17:17:26.033Z,88.30
2022-09-23T17:19:53.033Z,87.86
2022-09-23T17:22:20.174Z,88.23
2022-09-23T17:24:47.261Z,86.99
2022-09-23T17:27:14.267Z,87.10
2022-09-23T17:29:41.204Z,87.24
2022-09-23T17:32:08.185Z,87.75
2022-09-23T17:34:35.153Z,87.40
2022-09-23T17:37:02.133Z,87.40
2022-09-23T17:39:29.091Z,88.10
2022-09-23T17:41:56.067Z,88.10
2022-09-23T17:44:23.031Z,88.85
2022-09-23T17:46:50.034Z,89.31
2022-09-23T17:49:17.133Z,89.68
2022-09-23T17:51:44.245Z,89.14
2022-09-23T17:54:11.309Z,89.20
2022-09-23T17:56:38.297Z,89.42
2022-09-23T17:59:05.559Z,89.78
2022-09-23T18:01:32.666Z,90.12
2022-09-23T18:04:01.457Z,89.83
2022-09-23T18:06:30.780Z,89.78
2022-09-23T18:08:59.353Z,89.36
2022-09-23T18:11:28.791Z,89.42
2022-09-23T18:14:00.961Z,89.06
2022-09-23T18:16:31.272Z,89.65
2022-09-23T18:19:00.516Z,89.94
2022-09-23T18:21:30.987Z,90.11
2022-09-23T18:24:21.425Z,90.03
2022-09-23T18:26:47.556Z,89.76
2022-09-23T18:29:14.525Z,90.00
2022-09-23T18:31:42.550Z,90.73
2022-09-23T18:34:15.750Z,91.41
2022-09-23T18:36:43.154Z,91.53
2022-09-23T18:39:10.653Z,90.76
2022-09-23T18:41:38.132Z,90.98
2022-09-23T18:44:05.189Z,90.84
2022-09-23T18:46:32.168Z,91.45
2022-09-23T18:49:01.947Z,91.25
2022-09-23T18:51:34.800Z,91.35
2022-09-23T18:54:03.339Z,91.53
2022-09-23T18:56:39.788Z,91.64
2022-09-23T18:59:16.700Z,92.55
2022-09-23T19:01:44.679Z,92.89
2022-09-23T19:04:12.765Z,92.65
2022-09-23T19:06:39.839Z,92.67
2022-09-23T19:09:07.714Z,93.33
2022-09-23T19:11:35.488Z,94.15
2022-09-23T19:14:05.123Z,94.38
2022-09-23T19:16:32.821Z,94.86
2022-09-23T19:19:00.126Z,95.31
2022-09-23T19:21:28.151Z,95.67
2022-09-23T19:24:00.992Z,94.81
2022-09-23T19:26:30.503Z,94.12
2022-09-23T19:28:58.848Z,94.07
2022-09-23T19:31:31.733Z,95.67
2022-09-23T19:34:04.117Z,96.29
2022-09-23T19:36:35.934Z,96.03
2022-09-23T19:39:06.315Z,97.25
2022-09-23T19:41:34.503Z,97.92
2022-09-23T19:44:03.511Z,98.15
2022-09-23T19:46:31.197Z,98.69
2022-09-23T19:48:58.465Z,98.74
2022-09-23T19:51:26.056Z,97.76
2022-09-23T19:53:53.381Z,98.87
2022-09-23T19:56:20.637Z,99.07
2022-09-23T19:58:51.249Z,98.65
2022-09-23T20:01:18.973Z,98.38
2022-09-23T20:03:46.830Z,98.33
2022-09-23T20:06:14.914Z,98.64
2022-09-23T20:08:42.387Z,98.74
2022-09-23T20:11:14.922Z,99.58
2022-09-23T20:13:44.026Z,98.97
2022-09-23T20:16:14.704Z,99.63
2022-09-23T20:18:43.465Z,100.00
2022-09-23T20:21:12.909Z,100.00
2022-09-23T20:23:40.413Z,100.00
2022-09-23T20:26:07.454Z,99.57
2022-09-23T20:28:34.434Z,98.73
2022-09-23T20:31:01.440Z,99.19
2022-09-23T20:33:28.477Z,99.37
2022-09-23T20:35:55.541Z,98.98
2022-09-23T20:38:22.602Z,99.64
2022-09-23T20:40:57.270Z,100.00
2022-09-23T20:43:24.799Z,100.00
2022-09-23T20:45:53.996Z,100.00
2022-09-23T20:48:22.632Z,100.00
2022-09-23T20:50:50.395Z,100.00
2022-09-23T20:53:18.769Z,100.00
2022-09-23T20:55:53.284Z,100.00
2022-09-23T20:58:25.748Z,100.00
2022-09-23T21:00:53.896Z,100.00
2022-09-23T21:03:20.936Z,100.00
2022-09-23T21:05:47.884Z,100.00
2022-09-23T21:08:16.074Z,100.00
2022-09-23T21:10:43.053Z,100.00
2022-09-23T21:13:10.168Z,100.00
2022-09-23T21:15:37.136Z,100.00
2022-09-23T21:18:04.338Z,100.00
2022-09-23T21:20:31.304Z,100.00
2022-09-23T21:22:58.316Z,100.00
2022-09-23T21:25:28.435Z,100.00
2022-09-23T21:27:55.903Z,100.00
2022-09-23T21:30:22.871Z,100.00
2022-09-23T21:32:49.872Z,100.00
2022-09-23T21:35:16.835Z,100.00
2022-09-23T21:37:43.793Z,100.00
2022-09-23T21:40:11.028Z,100.00
2022-09-23T21:42:38.093Z,100.00
2022-09-23T21:45:05.537Z,100.00
2022-09-23T21:47:32.501Z,100.00
2022-09-23T21:49:59.455Z,100.00
2022-09-23T21:52:26.423Z,100.00
2022-09-23T21:54:53.399Z,100.00
2022-09-23T21:57:20.364Z,100.00
2022-09-23T21:59:47.293Z,100.00
2022-09-23T22:02:14.344Z,100.00
2022-09-23T22:04:41.400Z,100.00
2022-09-23T22:07:08.401Z,100.00
2022-09-23T22:09:35.382Z,100.00
2022-09-23T22:12:02.349Z,100.00
2022-09-23T22:14:29.420Z,100.00
2022-09-23T22:16:59.700Z,100.00
2022-09-23T22:19:29.434Z,100.00
2022-09-23T22:21:56.404Z,100.00
2022-09-23T22:24:23.350Z,100.00
2022-09-23T22:26:50.392Z,100.00
2022-09-23T22:29:17.445Z,100.00
2022-09-23T22:31:44.623Z,100.00
2022-09-23T22:34:31.242Z,100.00
2022-09-23T22:37:01.032Z,100.00
2022-09-23T22:39:29.516Z,100.00
2022-09-23T22:41:56.684Z,100.00
2022-09-23T22:44:24.405Z,100.00
2022-09-23T22:46:52.101Z,100.00
2022-09-23T22:49:19.110Z,100.00
2022-09-23T22:51:46.205Z,100.00
2022-09-23T22:54:13.222Z,100.00
2022-09-23T22:56:40.186Z,100.00
2022-09-23T22:59:09.893Z,100.00
2022-09-23T23:01:37.001Z,100.00
2022-09-23T23:04:04.353Z,100.00
2022-09-23T23:06:33.175Z,100.00
2022-09-23T23:09:00.454Z,100.00
2022-09-23T23:11:27.879Z,100.00
2022-09-23T23:13:54.852Z,100.00
2022-09-23T23:16:21.859Z,100.00
2022-09-23T23:18:48.871Z,100.00
2022-09-23T23:21:19.154Z,100.00
2022-09-23T23:23:51.681Z,100.00
2022-09-23T23:26:23.970Z,100.00
2022-09-23T23:28:52.785Z,100.00
2022-09-23T23:31:21.321Z,100.00
2022-09-23T23:33:48.822Z,100.00
2022-09-23T23:36:18.494Z,100.00
2022-09-23T23:38:47.525Z,100.00
2022-09-23T23:41:17.238Z,100.00
2022-09-23T23:43:46.258Z,100.00
2022-09-23T23:46:14.783Z,100.00
2022-09-23T23:48:42.489Z,100.00
2022-09-23T23:51:10.939Z,100.00
2022-09-23T23:53:39.710Z,100.00
2022-09-23T23:56:12.164Z,100.00
2022-09-23T23:58:39.975Z,100.00
